Kezdőlap
METAR-TAF:

METAR-TAF

Repülőterek :

Ísafjörður, Izland

földrajzi szélesség: 66-03-29N, földrajzi hosszúság: 23-08-07W, magasság: 2 m

Jelenlegi meteorológiai megfigyelések

A jelentés 44 perccel ezelõtt készült, 10:00 UTC
Különbözõ irányokból fújó szél 5 kt
Hőmérséklet 6°C
Páratartalom 56%
Légköri nyomás 1007 hPa
Látótávolság 10 km, vagy több
felhőtlen 1500 m magasságban, és nincs gomolyfelhõ

METAR: BIIS 051000Z VRB05KT CAVOK 06/M02 Q1007

Idő: 10:44 (10:44 UTC)

Előrejelzés

A jelentés 34 perccel ezelõtt készült, 10:10 UTC
Az előrejelzés 05-én 11 óra UTC és 05-én 17 óra UTC között érvényes
Keleti szél 10 kt
Látótávolság 10 km, vagy több
Szórványos felhőzet 5000 lábon

TAF: BIIS 051010Z 0511/0517 10010KT 9999 SCT050

Meteorológiai megfigyelések és előrejelzések több, mint 4000 repülőtéren (METAR és TAF jelentéseket).

A térképen piros és sárga pontok jelzik az elérhető meteorológiai állomásokat.

Mozgassa az egeret a pont fölött, hogy megjelenjen az állomás neve.

Azután kattintson az időjárási megfigyelések és előrejelzések megtekintéséhez.

A térkép megváltoztatása: kattintson a fekete keresztel jelölt zöld gombra ráközelítéshez, a vonallal jelölt zöld gombra távolításhoz, vagy a zöld nyilakra a szomszédos térképek eléréséhez.


METAR-TAF: